sensor_id;sensor_type;location;lat;lon;timestamp;P1;durP1;ratioP1;P2;durP2;ratioP2
19343;SDS011;9808;52.402;16.678;2024-03-23T00:55:28;36.80;;;16.70;;
19343;SDS011;9808;52.402;16.678;2024-03-23T00:57:54;36.63;;;17.77;;
19343;SDS011;9808;52.402;16.678;2024-03-23T01:00:20;33.23;;;16.13;;
19343;SDS011;9808;52.402;16.678;2024-03-23T01:02:46;42.40;;;17.87;;
19343;SDS011;9808;52.402;16.678;2024-03-23T01:05:12;37.13;;;16.93;;
19343;SDS011;9808;52.402;16.678;2024-03-23T01:07:38;34.33;;;16.07;;
19343;SDS011;9808;52.402;16.678;2024-03-23T01:10:04;34.60;;;16.73;;
19343;SDS011;9808;52.402;16.678;2024-03-23T01:12:31;36.37;;;17.13;;
19343;SDS011;9808;52.402;16.678;2024-03-23T01:14:57;34.00;;;16.53;;
19343;SDS011;9808;52.402;16.678;2024-03-23T01:17:23;36.33;;;16.57;;
19343;SDS011;9808;52.402;16.678;2024-03-23T01:19:49;34.90;;;17.17;;
19343;SDS011;9808;52.402;16.678;2024-03-23T01:22:15;35.53;;;15.93;;
19343;SDS011;9808;52.402;16.678;2024-03-23T01:24:42;35.93;;;16.97;;
19343;SDS011;9808;52.402;16.678;2024-03-23T01:27:08;36.70;;;17.03;;
19343;SDS011;9808;52.402;16.678;2024-03-23T01:29:35;34.53;;;15.67;;
19343;SDS011;9808;52.402;16.678;2024-03-23T01:32:01;31.20;;;15.80;;
19343;SDS011;9808;52.402;16.678;2024-03-23T01:34:27;31.53;;;15.63;;
19343;SDS011;9808;52.402;16.678;2024-03-23T01:36:53;31.73;;;16.63;;
19343;SDS011;9808;52.402;16.678;2024-03-23T01:39:19;36.60;;;17.13;;
19343;SDS011;9808;52.402;16.678;2024-03-23T01:41:45;31.63;;;16.60;;
19343;SDS011;9808;52.402;16.678;2024-03-23T01:44:11;31.77;;;16.03;;
19343;SDS011;9808;52.402;16.678;2024-03-23T01:46:38;29.77;;;15.73;;
19343;SDS011;9808;52.402;16.678;2024-03-23T01:49:05;37.03;;;17.67;;
19343;SDS011;9808;52.402;16.678;2024-03-23T01:51:31;31.43;;;16.90;;
19343;SDS011;9808;52.402;16.678;2024-03-23T01:53:58;37.57;;;17.37;;
19343;SDS011;9808;52.402;16.678;2024-03-23T01:56:28;32.67;;;16.93;;
19343;SDS011;9808;52.402;16.678;2024-03-23T01:58:55;35.10;;;16.10;;
19343;SDS011;9808;52.402;16.678;2024-03-23T02:01:21;34.63;;;17.07;;
19343;SDS011;9808;52.402;16.678;2024-03-23T02:03:48;35.27;;;16.53;;
19343;SDS011;9808;52.402;16.678;2024-03-23T02:06:14;32.30;;;16.77;;
19343;SDS011;9808;52.402;16.678;2024-03-23T02:08:40;32.00;;;17.23;;
19343;SDS011;9808;52.402;16.678;2024-03-23T02:11:06;34.70;;;16.93;;
19343;SDS011;9808;52.402;16.678;2024-03-23T02:13:32;34.73;;;16.67;;
19343;SDS011;9808;52.402;16.678;2024-03-23T02:15:58;37.73;;;17.20;;
19343;SDS011;9808;52.402;16.678;2024-03-23T02:18:25;36.63;;;17.47;;
19343;SDS011;9808;52.402;16.678;2024-03-23T02:20:51;32.70;;;17.37;;
19343;SDS011;9808;52.402;16.678;2024-03-23T02:23:17;36.03;;;16.33;;
19343;SDS011;9808;52.402;16.678;2024-03-23T02:25:44;35.00;;;17.03;;
19343;SDS011;9808;52.402;16.678;2024-03-23T02:28:10;34.83;;;17.67;;
19343;SDS011;9808;52.402;16.678;2024-03-23T02:30:36;40.73;;;19.30;;
19343;SDS011;9808;52.402;16.678;2024-03-23T02:33:03;43.83;;;19.47;;
19343;SDS011;9808;52.402;16.678;2024-03-23T02:35:29;41.87;;;19.43;;
19343;SDS011;9808;52.402;16.678;2024-03-23T02:37:55;42.50;;;19.23;;
19343;SDS011;9808;52.402;16.678;2024-03-23T02:40:23;44.57;;;18.03;;
19343;SDS011;9808;52.402;16.678;2024-03-23T02:42:50;35.70;;;18.63;;
19343;SDS011;9808;52.402;16.678;2024-03-23T02:45:16;34.60;;;17.77;;
19343;SDS011;9808;52.402;16.678;2024-03-23T02:47:42;34.43;;;18.63;;
19343;SDS011;9808;52.402;16.678;2024-03-23T02:50:08;47.37;;;19.70;;
19343;SDS011;9808;52.402;16.678;2024-03-23T02:52:35;37.17;;;19.33;;
19343;SDS011;9808;52.402;16.678;2024-03-23T02:55:01;42.00;;;18.57;;
19343;SDS011;9808;52.402;16.678;2024-03-23T02:57:28;43.33;;;20.47;;
19343;SDS011;9808;52.402;16.678;2024-03-23T02:59:54;44.33;;;19.73;;
19343;SDS011;9808;52.402;16.678;2024-03-23T03:02:20;38.60;;;18.33;;
19343;SDS011;9808;52.402;16.678;2024-03-23T03:04:47;37.50;;;18.43;;
19343;SDS011;9808;52.402;16.678;2024-03-23T03:07:13;40.77;;;19.00;;
19343;SDS011;9808;52.402;16.678;2024-03-23T03:09:39;36.77;;;18.10;;
19343;SDS011;9808;52.402;16.678;2024-03-23T03:12:05;34.90;;;18.17;;
19343;SDS011;9808;52.402;16.678;2024-03-23T03:14:32;38.10;;;17.03;;
19343;SDS011;9808;52.402;16.678;2024-03-23T03:16:58;37.67;;;17.97;;
19343;SDS011;9808;52.402;16.678;2024-03-23T03:19:24;35.00;;;17.37;;
19343;SDS011;9808;52.402;16.678;2024-03-23T03:21:50;36.40;;;18.30;;
19343;SDS011;9808;52.402;16.678;2024-03-23T03:24:16;39.13;;;18.13;;
19343;SDS011;9808;52.402;16.678;2024-03-23T03:26:43;33.50;;;17.60;;
19343;SDS011;9808;52.402;16.678;2024-03-23T03:29:09;38.27;;;17.80;;
19343;SDS011;9808;52.402;16.678;2024-03-23T03:31:37;33.73;;;17.27;;
19343;SDS011;9808;52.402;16.678;2024-03-23T03:34:03;32.73;;;16.73;;
19343;SDS011;9808;52.402;16.678;2024-03-23T03:36:29;35.43;;;17.87;;
19343;SDS011;9808;52.402;16.678;2024-03-23T03:38:55;35.37;;;18.03;;
19343;SDS011;9808;52.402;16.678;2024-03-23T03:41:21;36.10;;;17.13;;
19343;SDS011;9808;52.402;16.678;2024-03-23T03:43:47;37.47;;;17.73;;
19343;SDS011;9808;52.402;16.678;2024-03-23T03:46:14;36.40;;;18.67;;
19343;SDS011;9808;52.402;16.678;2024-03-23T03:48:40;32.43;;;16.87;;
19343;SDS011;9808;52.402;16.678;2024-03-23T03:51:06;32.47;;;17.20;;
19343;SDS011;9808;52.402;16.678;2024-03-23T03:53:32;29.70;;;16.17;;
19343;SDS011;9808;52.402;16.678;2024-03-23T03:56:02;31.20;;;17.17;;
19343;SDS011;9808;52.402;16.678;2024-03-23T03:58:28;33.80;;;16.60;;
19343;SDS011;9808;52.402;16.678;2024-03-23T04:00:54;33.43;;;17.33;;
19343;SDS011;9808;52.402;16.678;2024-03-23T04:03:20;35.17;;;16.80;;
19343;SDS011;9808;52.402;16.678;2024-03-23T04:05:53;33.07;;;17.03;;
19343;SDS011;9808;52.402;16.678;2024-03-23T04:08:20;33.70;;;17.13;;
19343;SDS011;9808;52.402;16.678;2024-03-23T04:10:46;34.13;;;16.03;;
19343;SDS011;9808;52.402;16.678;2024-03-23T04:13:12;21.77;;;9.70;;
19343;SDS011;9808;52.402;16.678;2024-03-23T04:15:39;17.40;;;6.90;;
19343;SDS011;9808;52.402;16.678;2024-03-23T04:18:05;14.87;;;5.67;;
19343;SDS011;9808;52.402;16.678;2024-03-23T04:20:31;11.93;;;5.07;;
19343;SDS011;9808;52.402;16.678;2024-03-23T04:22:58;13.73;;;5.33;;
19343;SDS011;9808;52.402;16.678;2024-03-23T04:25:24;13.37;;;5.03;;
19343;SDS011;9808;52.402;16.678;2024-03-23T04:27:50;14.70;;;4.27;;
19343;SDS011;9808;52.402;16.678;2024-03-23T04:30:16;11.17;;;3.80;;
19343;SDS011;9808;52.402;16.678;2024-03-23T04:32:43;11.27;;;3.07;;
19343;SDS011;9808;52.402;16.678;2024-03-23T04:35:09;10.00;;;3.40;;
19343;SDS011;9808;52.402;16.678;2024-03-23T04:37:35;11.57;;;3.53;;
19343;SDS011;9808;52.402;16.678;2024-03-23T04:40:02;9.10;;;3.20;;
19343;SDS011;9808;52.402;16.678;2024-03-23T04:42:28;10.30;;;3.00;;
19343;SDS011;9808;52.402;16.678;2024-03-23T04:44:54;11.47;;;3.03;;
19343;SDS011;9808;52.402;16.678;2024-03-23T04:47:21;9.83;;;3.67;;
19343;SDS011;9808;52.402;16.678;2024-03-23T04:49:48;11.50;;;3.30;;
19343;SDS011;9808;52.402;16.678;2024-03-23T04:52:14;16.07;;;3.63;;
19343;SDS011;9808;52.402;16.678;2024-03-23T04:54:40;12.63;;;3.60;;
19343;SDS011;9808;52.402;16.678;2024-03-23T04:57:07;8.87;;;3.03;;
19343;SDS011;9808;52.402;16.678;2024-03-23T04:59:33;12.47;;;3.50;;
19343;SDS011;9808;52.402;16.678;2024-03-23T05:01:59;11.57;;;3.60;;
19343;SDS011;9808;52.402;16.678;2024-03-23T05:04:26;10.40;;;3.00;;
19343;SDS011;9808;52.402;16.678;2024-03-23T05:06:52;14.23;;;3.90;;
19343;SDS011;9808;52.402;16.678;2024-03-23T05:09:18;8.43;;;3.27;;
19343;SDS011;9808;52.402;16.678;2024-03-23T05:11:45;14.30;;;4.07;;
19343;SDS011;9808;52.402;16.678;2024-03-23T05:14:14;12.10;;;3.87;;
19343;SDS011;9808;52.402;16.678;2024-03-23T05:16:40;9.93;;;3.40;;
19343;SDS011;9808;52.402;16.678;2024-03-23T05:19:07;12.27;;;3.27;;
19343;SDS011;9808;52.402;16.678;2024-03-23T05:21:33;11.67;;;3.57;;
19343;SDS011;9808;52.402;16.678;2024-03-23T05:23:59;12.33;;;3.33;;
19343;SDS011;9808;52.402;16.678;2024-03-23T05:26:25;11.67;;;3.50;;
19343;SDS011;9808;52.402;16.678;2024-03-23T05:28:51;10.87;;;2.70;;
19343;SDS011;9808;52.402;16.678;2024-03-23T05:31:27;13.97;;;3.17;;
19343;SDS011;9808;52.402;16.678;2024-03-23T05:33:54;11.73;;;3.33;;
19343;SDS011;9808;52.402;16.678;2024-03-23T05:36:20;11.50;;;3.20;;
19343;SDS011;9808;52.402;16.678;2024-03-23T05:38:47;12.10;;;3.40;;
19343;SDS011;9808;52.402;16.678;2024-03-23T05:41:13;10.93;;;3.10;;
19343;SDS011;9808;52.402;16.678;2024-03-23T05:43:39;16.67;;;3.07;;
19343;SDS011;9808;52.402;16.678;2024-03-23T05:46:05;9.43;;;2.37;;
19343;SDS011;9808;52.402;16.678;2024-03-23T05:48:32;12.07;;;2.90;;
19343;SDS011;9808;52.402;16.678;2024-03-23T05:50:59;13.83;;;3.33;;
19343;SDS011;9808;52.402;16.678;2024-03-23T05:53:25;13.57;;;3.40;;
19343;SDS011;9808;52.402;16.678;2024-03-23T05:55:51;10.27;;;2.97;;
19343;SDS011;9808;52.402;16.678;2024-03-23T05:58:25;13.43;;;3.40;;
19343;SDS011;9808;52.402;16.678;2024-03-23T06:00:56;14.57;;;3.40;;
19343;SDS011;9808;52.402;16.678;2024-03-23T06:03:23;14.60;;;3.53;;
19343;SDS011;9808;52.402;16.678;2024-03-23T06:05:50;13.40;;;2.73;;
19343;SDS011;9808;52.402;16.678;2024-03-23T06:08:16;8.43;;;2.50;;
19343;SDS011;9808;52.402;16.678;2024-03-23T06:10:42;13.57;;;3.20;;
19343;SDS011;9808;52.402;16.678;2024-03-23T06:13:08;12.13;;;3.47;;
19343;SDS011;9808;52.402;16.678;2024-03-23T06:15:34;14.90;;;3.40;;
19343;SDS011;9808;52.402;16.678;2024-03-23T06:18:03;13.63;;;4.00;;
19343;SDS011;9808;52.402;16.678;2024-03-23T06:20:29;18.47;;;3.33;;
19343;SDS011;9808;52.402;16.678;2024-03-23T06:22:56;17.77;;;4.20;;
19343;SDS011;9808;52.402;16.678;2024-03-23T06:25:22;14.37;;;3.40;;
19343;SDS011;9808;52.402;16.678;2024-03-23T06:27:48;19.23;;;4.07;;
19343;SDS011;9808;52.402;16.678;2024-03-23T06:30:14;16.47;;;4.20;;
19343;SDS011;9808;52.402;16.678;2024-03-23T06:32:42;16.97;;;3.67;;
19343;SDS011;9808;52.402;16.678;2024-03-23T06:35:08;13.93;;;3.50;;
19343;SDS011;9808;52.402;16.678;2024-03-23T06:37:37;17.80;;;4.13;;
19343;SDS011;9808;52.402;16.678;2024-03-23T06:40:07;16.97;;;4.00;;
19343;SDS011;9808;52.402;16.678;2024-03-23T06:42:35;14.07;;;3.90;;
19343;SDS011;9808;52.402;16.678;2024-03-23T06:45:02;16.40;;;4.07;;
19343;SDS011;9808;52.402;16.678;2024-03-23T06:47:30;13.53;;;3.83;;
19343;SDS011;9808;52.402;16.678;2024-03-23T06:49:56;20.87;;;4.63;;
19343;SDS011;9808;52.402;16.678;2024-03-23T06:52:22;22.83;;;4.57;;
19343;SDS011;9808;52.402;16.678;2024-03-23T06:54:48;16.97;;;3.57;;
19343;SDS011;9808;52.402;16.678;2024-03-23T06:57:14;22.43;;;4.07;;
19343;SDS011;9808;52.402;16.678;2024-03-23T06:59:40;20.73;;;3.50;;
19343;SDS011;9808;52.402;16.678;2024-03-23T07:02:07;19.53;;;3.50;;
19343;SDS011;9808;52.402;16.678;2024-03-23T07:04:34;12.43;;;3.53;;
19343;SDS011;9808;52.402;16.678;2024-03-23T07:07:00;14.23;;;3.47;;
19343;SDS011;9808;52.402;16.678;2024-03-23T07:09:27;24.20;;;4.90;;
19343;SDS011;9808;52.402;16.678;2024-03-23T07:11:54;25.77;;;5.33;;
19343;SDS011;9808;52.402;16.678;2024-03-23T07:14:21;22.87;;;6.20;;
19343;SDS011;9808;52.402;16.678;2024-03-23T07:16:47;23.30;;;5.03;;
19343;SDS011;9808;52.402;16.678;2024-03-23T07:19:15;18.83;;;4.33;;
19343;SDS011;9808;52.402;16.678;2024-03-23T07:21:44;17.20;;;3.87;;
19343;SDS011;9808;52.402;16.678;2024-03-23T07:24:10;14.93;;;3.67;;
19343;SDS011;9808;52.402;16.678;2024-03-23T07:26:37;16.10;;;3.60;;
19343;SDS011;9808;52.402;16.678;2024-03-23T07:29:04;19.53;;;3.57;;
19343;SDS011;9808;52.402;16.678;2024-03-23T07:31:30;21.47;;;4.17;;
19343;SDS011;9808;52.402;16.678;2024-03-23T07:33:56;22.13;;;4.27;;
19343;SDS011;9808;52.402;16.678;2024-03-23T07:36:22;20.87;;;4.10;;
19343;SDS011;9808;52.402;16.678;2024-03-23T07:38:48;16.90;;;4.63;;
19343;SDS011;9808;52.402;16.678;2024-03-23T07:41:15;18.50;;;4.17;;
19343;SDS011;9808;52.402;16.678;2024-03-23T07:43:46;17.27;;;4.37;;
19343;SDS011;9808;52.402;16.678;2024-03-23T07:46:12;15.20;;;4.23;;
19343;SDS011;9808;52.402;16.678;2024-03-23T07:48:39;14.93;;;4.00;;
19343;SDS011;9808;52.402;16.678;2024-03-23T07:51:08;28.47;;;4.63;;
19343;SDS011;9808;52.402;16.678;2024-03-23T07:53:34;24.00;;;5.10;;
19343;SDS011;9808;52.402;16.678;2024-03-23T07:58:30;21.20;;;4.70;;
19343;SDS011;9808;52.402;16.678;2024-03-23T08:00:56;16.80;;;5.30;;
19343;SDS011;9808;52.402;16.678;2024-03-23T08:03:29;14.63;;;4.03;;
19343;SDS011;9808;52.402;16.678;2024-03-23T08:05:55;19.97;;;4.53;;
19343;SDS011;9808;52.402;16.678;2024-03-23T08:08:21;17.13;;;4.23;;
19343;SDS011;9808;52.402;16.678;2024-03-23T08:10:48;24.43;;;5.43;;
19343;SDS011;9808;52.402;16.678;2024-03-23T08:13:14;20.10;;;4.80;;
19343;SDS011;9808;52.402;16.678;2024-03-23T08:15:41;21.60;;;4.83;;
19343;SDS011;9808;52.402;16.678;2024-03-23T08:18:07;14.33;;;4.80;;
19343;SDS011;9808;52.402;16.678;2024-03-23T08:20:33;27.90;;;5.30;;
19343;SDS011;9808;52.402;16.678;2024-03-23T08:22:59;31.03;;;5.10;;
19343;SDS011;9808;52.402;16.678;2024-03-23T08:25:25;15.97;;;4.33;;
19343;SDS011;9808;52.402;16.678;2024-03-23T08:27:51;20.53;;;4.03;;
19343;SDS011;9808;52.402;16.678;2024-03-23T08:30:18;17.40;;;3.87;;
19343;SDS011;9808;52.402;16.678;2024-03-23T08:32:44;17.73;;;4.17;;
19343;SDS011;9808;52.402;16.678;2024-03-23T08:35:11;17.57;;;4.10;;
19343;SDS011;9808;52.402;16.678;2024-03-23T08:37:37;17.33;;;4.33;;
19343;SDS011;9808;52.402;16.678;2024-03-23T08:40:03;18.13;;;4.43;;
19343;SDS011;9808;52.402;16.678;2024-03-23T08:42:30;18.07;;;4.33;;
19343;SDS011;9808;52.402;16.678;2024-03-23T08:44:56;15.97;;;3.70;;
19343;SDS011;9808;52.402;16.678;2024-03-23T08:47:22;14.03;;;4.33;;
19343;SDS011;9808;52.402;16.678;2024-03-23T08:49:48;20.40;;;4.67;;
19343;SDS011;9808;52.402;16.678;2024-03-23T08:52:14;19.07;;;4.57;;
19343;SDS011;9808;52.402;16.678;2024-03-23T08:54:41;14.43;;;4.13;;
19343;SDS011;9808;52.402;16.678;2024-03-23T08:57:07;18.13;;;3.67;;
19343;SDS011;9808;52.402;16.678;2024-03-23T08:59:33;17.97;;;3.43;;
19343;SDS011;9808;52.402;16.678;2024-03-23T09:01:59;21.67;;;4.10;;
19343;SDS011;9808;52.402;16.678;2024-03-23T09:04:26;17.07;;;4.53;;
19343;SDS011;9808;52.402;16.678;2024-03-23T09:06:52;20.50;;;4.40;;
19343;SDS011;9808;52.402;16.678;2024-03-23T09:09:18;18.60;;;3.90;;
19343;SDS011;9808;52.402;16.678;2024-03-23T09:11:45;17.00;;;3.97;;
19343;SDS011;9808;52.402;16.678;2024-03-23T09:14:11;17.03;;;4.43;;
19343;SDS011;9808;52.402;16.678;2024-03-23T09:16:37;19.07;;;4.10;;
19343;SDS011;9808;52.402;16.678;2024-03-23T09:19:03;21.37;;;4.20;;
19343;SDS011;9808;52.402;16.678;2024-03-23T09:21:29;15.07;;;4.77;;
19343;SDS011;9808;52.402;16.678;2024-03-23T09:23:55;15.93;;;4.40;;
19343;SDS011;9808;52.402;16.678;2024-03-23T09:26:22;16.00;;;4.13;;
19343;SDS011;9808;52.402;16.678;2024-03-23T09:28:48;18.70;;;3.90;;
19343;SDS011;9808;52.402;16.678;2024-03-23T09:31:14;13.73;;;3.93;;
19343;SDS011;9808;52.402;16.678;2024-03-23T09:33:41;15.97;;;3.70;;
19343;SDS011;9808;52.402;16.678;2024-03-23T09:36:07;13.17;;;3.57;;
19343;SDS011;9808;52.402;16.678;2024-03-23T09:38:34;17.17;;;4.43;;
19343;SDS011;9808;52.402;16.678;2024-03-23T09:41:00;16.70;;;4.17;;
19343;SDS011;9808;52.402;16.678;2024-03-23T09:43:26;17.87;;;4.40;;
19343;SDS011;9808;52.402;16.678;2024-03-23T09:45:53;18.63;;;4.53;;
19343;SDS011;9808;52.402;16.678;2024-03-23T09:48:19;16.57;;;4.83;;
19343;SDS011;9808;52.402;16.678;2024-03-23T09:50:45;18.00;;;5.47;;
19343;SDS011;9808;52.402;16.678;2024-03-23T09:53:14;20.37;;;5.43;;
19343;SDS011;9808;52.402;16.678;2024-03-23T09:55:40;24.53;;;6.27;;
19343;SDS011;9808;52.402;16.678;2024-03-23T09:58:08;15.90;;;5.30;;
19343;SDS011;9808;52.402;16.678;2024-03-23T10:00:38;26.63;;;6.00;;
19343;SDS011;9808;52.402;16.678;2024-03-23T10:03:04;15.50;;;4.90;;
19343;SDS011;9808;52.402;16.678;2024-03-23T10:05:32;18.33;;;5.67;;
19343;SDS011;9808;52.402;16.678;2024-03-23T10:08:19;20.80;;;5.43;;
19343;SDS011;9808;52.402;16.678;2024-03-23T10:10:45;24.27;;;6.87;;
19343;SDS011;9808;52.402;16.678;2024-03-23T10:13:33;17.83;;;5.13;;
19343;SDS011;9808;52.402;16.678;2024-03-23T10:15:59;23.33;;;5.37;;
19343;SDS011;9808;52.402;16.678;2024-03-23T10:18:26;17.43;;;5.80;;
19343;SDS011;9808;52.402;16.678;2024-03-23T10:23:34;15.73;;;4.80;;
19343;SDS011;9808;52.402;16.678;2024-03-23T10:26:23;18.67;;;4.57;;
19343;SDS011;9808;52.402;16.678;2024-03-23T10:28:51;17.77;;;4.17;;
19343;SDS011;9808;52.402;16.678;2024-03-23T10:31:18;15.23;;;4.47;;
19343;SDS011;9808;52.402;16.678;2024-03-23T10:33:45;17.03;;;4.87;;
19343;SDS011;9808;52.402;16.678;2024-03-23T10:36:12;11.50;;;4.13;;
19343;SDS011;9808;52.402;16.678;2024-03-23T10:38:39;14.90;;;3.83;;
19343;SDS011;9808;52.402;16.678;2024-03-23T10:41:07;13.67;;;3.80;;
19343;SDS011;9808;52.402;16.678;2024-03-23T10:43:33;10.67;;;4.00;;
19343;SDS011;9808;52.402;16.678;2024-03-23T10:46:00;14.63;;;4.03;;
19343;SDS011;9808;52.402;16.678;2024-03-23T10:48:26;14.90;;;3.07;;
19343;SDS011;9808;52.402;16.678;2024-03-23T10:50:52;13.40;;;3.83;;
19343;SDS011;9808;52.402;16.678;2024-03-23T10:53:20;11.60;;;3.50;;
19343;SDS011;9808;52.402;16.678;2024-03-23T10:55:48;12.67;;;3.67;;
19343;SDS011;9808;52.402;16.678;2024-03-23T10:58:14;17.03;;;3.87;;
19343;SDS011;9808;52.402;16.678;2024-03-23T11:00:41;13.57;;;3.53;;
19343;SDS011;9808;52.402;16.678;2024-03-23T11:05:53;13.43;;;3.73;;
19343;SDS011;9808;52.402;16.678;2024-03-23T11:08:35;12.37;;;4.20;;
19343;SDS011;9808;52.402;16.678;2024-03-23T11:13:40;12.57;;;4.20;;
19343;SDS011;9808;52.402;16.678;2024-03-23T11:16:13;12.03;;;4.00;;
19343;SDS011;9808;52.402;16.678;2024-03-23T11:18:41;19.37;;;4.23;;
19343;SDS011;9808;52.402;16.678;2024-03-23T11:21:07;12.20;;;4.30;;
19343;SDS011;9808;52.402;16.678;2024-03-23T11:23:34;11.37;;;3.73;;
19343;SDS011;9808;52.402;16.678;2024-03-23T11:26:00;12.53;;;4.50;;
19343;SDS011;9808;52.402;16.678;2024-03-23T11:28:26;11.00;;;4.10;;
19343;SDS011;9808;52.402;16.678;2024-03-23T11:30:52;11.00;;;3.50;;
19343;SDS011;9808;52.402;16.678;2024-03-23T11:33:18;12.07;;;4.10;;
19343;SDS011;9808;52.402;16.678;2024-03-23T11:35:44;9.00;;;3.70;;
19343;SDS011;9808;52.402;16.678;2024-03-23T11:38:11;9.80;;;3.83;;
19343;SDS011;9808;52.402;16.678;2024-03-23T11:40:39;10.03;;;3.70;;
19343;SDS011;9808;52.402;16.678;2024-03-23T11:43:09;8.17;;;3.77;;
19343;SDS011;9808;52.402;16.678;2024-03-23T11:45:46;19.87;;;4.07;;
19343;SDS011;9808;52.402;16.678;2024-03-23T11:48:13;10.47;;;3.20;;
19343;SDS011;9808;52.402;16.678;2024-03-23T11:50:40;11.10;;;4.03;;
19343;SDS011;9808;52.402;16.678;2024-03-23T11:53:08;9.50;;;3.63;;
19343;SDS011;9808;52.402;16.678;2024-03-23T11:58:19;12.73;;;3.83;;
19343;SDS011;9808;52.402;16.678;2024-03-23T12:00:56;7.87;;;3.33;;
19343;SDS011;9808;52.402;16.678;2024-03-23T12:03:22;8.83;;;3.23;;
19343;SDS011;9808;52.402;16.678;2024-03-23T12:05:54;14.43;;;5.03;;
19343;SDS011;9808;52.402;16.678;2024-03-23T12:08:21;12.37;;;3.70;;
19343;SDS011;9808;52.402;16.678;2024-03-23T12:10:48;11.50;;;3.90;;
19343;SDS011;9808;52.402;16.678;2024-03-23T12:13:16;10.47;;;3.53;;
19343;SDS011;9808;52.402;16.678;2024-03-23T12:15:43;8.73;;;3.50;;
19343;SDS011;9808;52.402;16.678;2024-03-23T12:18:09;10.03;;;3.90;;
19343;SDS011;9808;52.402;16.678;2024-03-23T12:20:35;10.67;;;3.70;;
19343;SDS011;9808;52.402;16.678;2024-03-23T12:23:06;8.93;;;3.53;;
19343;SDS011;9808;52.402;16.678;2024-03-23T12:25:32;10.93;;;4.10;;
19343;SDS011;9808;52.402;16.678;2024-03-23T12:27:59;10.50;;;3.90;;
19343;SDS011;9808;52.402;16.678;2024-03-23T12:30:25;7.80;;;3.83;;
19343;SDS011;9808;52.402;16.678;2024-03-23T12:32:51;13.27;;;4.17;;
19343;SDS011;9808;52.402;16.678;2024-03-23T12:35:18;8.97;;;3.83;;
19343;SDS011;9808;52.402;16.678;2024-03-23T12:37:44;13.30;;;5.23;;
19343;SDS011;9808;52.402;16.678;2024-03-23T12:40:10;11.63;;;4.60;;
19343;SDS011;9808;52.402;16.678;2024-03-23T12:42:37;13.70;;;5.30;;
19343;SDS011;9808;52.402;16.678;2024-03-23T12:45:03;13.63;;;5.10;;
19343;SDS011;9808;52.402;16.678;2024-03-23T12:47:30;12.03;;;4.03;;
19343;SDS011;9808;52.402;16.678;2024-03-23T12:49:56;9.83;;;3.10;;
19343;SDS011;9808;52.402;16.678;2024-03-23T12:52:23;11.30;;;3.27;;
19343;SDS011;9808;52.402;16.678;2024-03-23T12:54:54;6.60;;;3.07;;
19343;SDS011;9808;52.402;16.678;2024-03-23T12:57:21;9.67;;;3.00;;
19343;SDS011;9808;52.402;16.678;2024-03-23T12:59:48;5.87;;;2.50;;
19343;SDS011;9808;52.402;16.678;2024-03-23T13:02:19;7.63;;;3.20;;
19343;SDS011;9808;52.402;16.678;2024-03-23T13:04:46;9.90;;;3.00;;
19343;SDS011;9808;52.402;16.678;2024-03-23T13:07:12;6.57;;;2.70;;
19343;SDS011;9808;52.402;16.678;2024-03-23T13:09:39;6.43;;;2.50;;
19343;SDS011;9808;52.402;16.678;2024-03-23T13:12:05;5.93;;;2.77;;
19343;SDS011;9808;52.402;16.678;2024-03-23T13:14:31;4.53;;;1.50;;
19343;SDS011;9808;52.402;16.678;2024-03-23T13:16:57;4.40;;;1.27;;
19343;SDS011;9808;52.402;16.678;2024-03-23T13:19:24;2.90;;;1.63;;
19343;SDS011;9808;52.402;16.678;2024-03-23T13:21:55;4.80;;;1.10;;
19343;SDS011;9808;52.402;16.678;2024-03-23T13:24:22;3.70;;;1.37;;
19343;SDS011;9808;52.402;16.678;2024-03-23T13:26:50;4.60;;;1.30;;
19343;SDS011;9808;52.402;16.678;2024-03-23T13:29:16;3.03;;;1.27;;
19343;SDS011;9808;52.402;16.678;2024-03-23T13:31:43;2.17;;;1.20;;
19343;SDS011;9808;52.402;16.678;2024-03-23T13:34:09;5.13;;;1.67;;
19343;SDS011;9808;52.402;16.678;2024-03-23T13:36:35;3.47;;;1.53;;
19343;SDS011;9808;52.402;16.678;2024-03-23T13:39:04;4.73;;;1.73;;
19343;SDS011;9808;52.402;16.678;2024-03-23T13:41:42;8.67;;;1.60;;
19343;SDS011;9808;52.402;16.678;2024-03-23T13:44:09;4.33;;;1.53;;
19343;SDS011;9808;52.402;16.678;2024-03-23T13:46:36;2.97;;;1.33;;
19343;SDS011;9808;52.402;16.678;2024-03-23T13:49:02;4.53;;;1.20;;
19343;SDS011;9808;52.402;16.678;2024-03-23T13:51:29;3.43;;;1.30;;
19343;SDS011;9808;52.402;16.678;2024-03-23T13:53:55;2.60;;;1.00;;
19343;SDS011;9808;52.402;16.678;2024-03-23T13:56:24;1.63;;;0.80;;
19343;SDS011;9808;52.402;16.678;2024-03-23T13:58:51;2.00;;;0.80;;
19343;SDS011;9808;52.402;16.678;2024-03-23T14:01:17;2.73;;;1.10;;
19343;SDS011;9808;52.402;16.678;2024-03-23T14:03:43;2.60;;;0.97;;
19343;SDS011;9808;52.402;16.678;2024-03-23T14:06:10;2.40;;;1.00;;
19343;SDS011;9808;52.402;16.678;2024-03-23T14:08:37;2.13;;;1.07;;
19343;SDS011;9808;52.402;16.678;2024-03-23T14:11:07;2.53;;;0.93;;
19343;SDS011;9808;52.402;16.678;2024-03-23T14:13:34;3.53;;;1.20;;
19343;SDS011;9808;52.402;16.678;2024-03-23T14:16:00;1.93;;;1.03;;
19343;SDS011;9808;52.402;16.678;2024-03-23T14:18:27;3.87;;;1.70;;
19343;SDS011;9808;52.402;16.678;2024-03-23T14:20:56;4.77;;;1.40;;
19343;SDS011;9808;52.402;16.678;2024-03-23T14:23:26;2.87;;;1.10;;
19343;SDS011;9808;52.402;16.678;2024-03-23T14:25:53;3.03;;;1.03;;
19343;SDS011;9808;52.402;16.678;2024-03-23T14:28:20;1.50;;;0.77;;
19343;SDS011;9808;52.402;16.678;2024-03-23T14:30:47;4.83;;;1.30;;
19343;SDS011;9808;52.402;16.678;2024-03-23T14:33:13;5.43;;;2.30;;
19343;SDS011;9808;52.402;16.678;2024-03-23T14:35:39;5.80;;;2.37;;
19343;SDS011;9808;52.402;16.678;2024-03-23T14:38:06;6.00;;;2.57;;
19343;SDS011;9808;52.402;16.678;2024-03-23T14:40:33;6.63;;;2.50;;
19343;SDS011;9808;52.402;16.678;2024-03-23T14:42:59;6.80;;;2.67;;
19343;SDS011;9808;52.402;16.678;2024-03-23T14:45:25;8.70;;;2.60;;
19343;SDS011;9808;52.402;16.678;2024-03-23T14:47:51;4.23;;;1.80;;
19343;SDS011;9808;52.402;16.678;2024-03-23T14:50:17;4.93;;;1.50;;
19343;SDS011;9808;52.402;16.678;2024-03-23T14:52:47;4.27;;;1.53;;
19343;SDS011;9808;52.402;16.678;2024-03-23T14:55:13;5.40;;;2.10;;
19343;SDS011;9808;52.402;16.678;2024-03-23T14:57:40;3.47;;;1.87;;
19343;SDS011;9808;52.402;16.678;2024-03-23T15:00:07;4.83;;;1.97;;
19343;SDS011;9808;52.402;16.678;2024-03-23T15:02:35;4.40;;;1.90;;
19343;SDS011;9808;52.402;16.678;2024-03-23T15:05:02;3.67;;;1.63;;
19343;SDS011;9808;52.402;16.678;2024-03-23T15:07:30;3.87;;;1.43;;
19343;SDS011;9808;52.402;16.678;2024-03-23T15:09:56;6.33;;;2.57;;
19343;SDS011;9808;52.402;16.678;2024-03-23T15:12:22;4.10;;;2.00;;
19343;SDS011;9808;52.402;16.678;2024-03-23T15:14:48;6.27;;;1.87;;
19343;SDS011;9808;52.402;16.678;2024-03-23T15:17:14;6.03;;;2.20;;
19343;SDS011;9808;52.402;16.678;2024-03-23T15:19:40;5.47;;;2.43;;
19343;SDS011;9808;52.402;16.678;2024-03-23T15:22:08;6.00;;;2.37;;
19343;SDS011;9808;52.402;16.678;2024-03-23T15:24:35;3.83;;;1.80;;
19343;SDS011;9808;52.402;16.678;2024-03-23T15:27:02;4.40;;;1.83;;
19343;SDS011;9808;52.402;16.678;2024-03-23T15:29:28;2.73;;;1.50;;
19343;SDS011;9808;52.402;16.678;2024-03-23T15:31:55;3.73;;;1.50;;
19343;SDS011;9808;52.402;16.678;2024-03-23T15:34:22;4.77;;;1.97;;
19343;SDS011;9808;52.402;16.678;2024-03-23T15:36:48;6.90;;;2.67;;
19343;SDS011;9808;52.402;16.678;2024-03-23T15:39:18;7.43;;;2.37;;
19343;SDS011;9808;52.402;16.678;2024-03-23T15:41:48;6.83;;;2.47;;